sensor_id;sensor_type;location;lat;lon;timestamp;pressure;altitude;pressure_sealevel;temperature;humidity
79586;BME280;69054;50.866;4.636;2023-04-22T00:00:13;100427.47;;;4.51;97.75
79586;BME280;69054;50.866;4.636;2023-04-22T00:02:39;100428.28;;;4.52;98.24
79586;BME280;69054;50.866;4.636;2023-04-22T00:05:06;100434.03;;;4.49;97.88
79586;BME280;69054;50.866;4.636;2023-04-22T00:07:32;100425.44;;;4.61;98.35
79586;BME280;69054;50.866;4.636;2023-04-22T00:09:57;100431.03;;;4.68;98.40
79586;BME280;69054;50.866;4.636;2023-04-22T00:12:23;100435.09;;;4.72;98.47
79586;BME280;69054;50.866;4.636;2023-04-22T00:14:48;100426.63;;;4.67;97.79
79586;BME280;69054;50.866;4.636;2023-04-22T00:17:14;100425.59;;;4.60;97.95
79586;BME280;69054;50.866;4.636;2023-04-22T00:19:40;100423.56;;;4.54;98.03
79586;BME280;69054;50.866;4.636;2023-04-22T00:22:05;100417.63;;;4.50;98.04
79586;BME280;69054;50.866;4.636;2023-04-22T00:24:31;100411.69;;;4.47;98.10
79586;BME280;69054;50.866;4.636;2023-04-22T00:26:57;100419.97;;;4.45;98.17
79586;BME280;69054;50.866;4.636;2023-04-22T00:29:24;100404.94;;;4.42;98.33
79586;BME280;69054;50.866;4.636;2023-04-22T00:31:49;100408.97;;;4.38;98.17
79586;BME280;69054;50.866;4.636;2023-04-22T00:34:16;100411.00;;;4.36;98.05
79586;BME280;69054;50.866;4.636;2023-04-22T00:36:44;100409.78;;;4.31;97.97
79586;BME280;69054;50.866;4.636;2023-04-22T00:39:10;100407.22;;;4.21;97.56
79586;BME280;69054;50.866;4.636;2023-04-22T00:41:38;100405.81;;;4.08;97.24
79586;BME280;69054;50.866;4.636;2023-04-22T00:44:03;100406.28;;;3.96;97.23
79586;BME280;69054;50.866;4.636;2023-04-22T00:46:29;100411.44;;;3.81;97.22
79586;BME280;69054;50.866;4.636;2023-04-22T00:48:55;100410.19;;;3.67;97.73
79586;BME280;69054;50.866;4.636;2023-04-22T00:51:21;100414.00;;;3.56;97.35
79586;BME280;69054;50.866;4.636;2023-04-22T00:53:46;100402.44;;;3.46;97.72
79586;BME280;69054;50.866;4.636;2023-04-22T00:56:12;100406.47;;;3.42;97.80
79586;BME280;69054;50.866;4.636;2023-04-22T00:58:38;100406.94;;;3.37;97.33
79586;BME280;69054;50.866;4.636;2023-04-22T01:01:03;100400.22;;;3.41;97.90
79586;BME280;69054;50.866;4.636;2023-04-22T01:03:30;100407.84;;;3.46;97.92
79586;BME280;69054;50.866;4.636;2023-04-22T01:05:57;100406.75;;;3.57;98.43
79586;BME280;69054;50.866;4.636;2023-04-22T01:08:27;100402.59;;;3.70;99.02
79586;BME280;69054;50.866;4.636;2023-04-22T01:10:53;100399.88;;;3.70;98.75
79586;BME280;69054;50.866;4.636;2023-04-22T01:13:18;100401.91;;;3.68;98.59
79586;BME280;69054;50.866;4.636;2023-04-22T01:15:45;100400.22;;;3.67;98.47
79586;BME280;69054;50.866;4.636;2023-04-22T01:18:10;100400.06;;;3.69;98.75
79586;BME280;69054;50.866;4.636;2023-04-22T01:20:36;100395.81;;;3.66;98.53
79586;BME280;69054;50.866;4.636;2023-04-22T01:23:02;100397.78;;;3.56;98.09
79586;BME280;69054;50.866;4.636;2023-04-22T01:25:28;100391.81;;;3.44;97.83
79586;BME280;69054;50.866;4.636;2023-04-22T01:27:54;100392.59;;;3.36;98.15
79586;BME280;69054;50.866;4.636;2023-04-22T01:30:20;100393.56;;;3.27;98.32
79586;BME280;69054;50.866;4.636;2023-04-22T01:32:47;100392.78;;;3.17;97.66
79586;BME280;69054;50.866;4.636;2023-04-22T01:35:13;100392.56;;;3.10;97.72
79586;BME280;69054;50.866;4.636;2023-04-22T01:37:38;100388.66;;;3.05;97.86
79586;BME280;69054;50.866;4.636;2023-04-22T01:40:06;100390.16;;;3.07;98.16
79586;BME280;69054;50.866;4.636;2023-04-22T01:42:33;100387.16;;;3.10;98.18
79586;BME280;69054;50.866;4.636;2023-04-22T01:44:59;100387.41;;;3.17;98.55
79586;BME280;69054;50.866;4.636;2023-04-22T01:47:24;100383.22;;;3.23;98.83
79586;BME280;69054;50.866;4.636;2023-04-22T01:49:51;100382.75;;;3.27;99.19
79586;BME280;69054;50.866;4.636;2023-04-22T01:52:17;100384.97;;;3.32;98.96
79586;BME280;69054;50.866;4.636;2023-04-22T01:54:42;100381.41;;;3.31;99.00
79586;BME280;69054;50.866;4.636;2023-04-22T01:57:10;100382.94;;;3.34;98.96
79586;BME280;69054;50.866;4.636;2023-04-22T01:59:38;100377.59;;;3.42;99.27
79586;BME280;69054;50.866;4.636;2023-04-22T02:02:03;100384.06;;;3.49;99.15
79586;BME280;69054;50.866;4.636;2023-04-22T02:04:29;100382.22;;;3.50;99.16
79586;BME280;69054;50.866;4.636;2023-04-22T02:06:54;100378.19;;;3.54;99.06
79586;BME280;69054;50.866;4.636;2023-04-22T02:09:20;100373.47;;;3.56;99.10
79586;BME280;69054;50.866;4.636;2023-04-22T02:11:45;100376.03;;;3.58;99.00
79586;BME280;69054;50.866;4.636;2023-04-22T02:14:10;100388.34;;;3.60;99.05
79586;BME280;69054;50.866;4.636;2023-04-22T02:16:36;100391.03;;;3.60;98.68
79586;BME280;69054;50.866;4.636;2023-04-22T02:19:01;100386.84;;;3.66;98.87
79586;BME280;69054;50.866;4.636;2023-04-22T02:21:30;100385.56;;;3.78;99.06
79586;BME280;69054;50.866;4.636;2023-04-22T02:24:00;100390.16;;;3.86;99.17
79586;BME280;69054;50.866;4.636;2023-04-22T02:26:26;100385.09;;;3.83;98.93
79586;BME280;69054;50.866;4.636;2023-04-22T02:28:52;100384.41;;;3.81;98.96
79586;BME280;69054;50.866;4.636;2023-04-22T02:31:18;100385.56;;;3.78;98.91
79586;BME280;69054;50.866;4.636;2023-04-22T02:33:45;100386.59;;;3.77;98.91
79586;BME280;69054;50.866;4.636;2023-04-22T02:36:10;100376.47;;;3.79;98.99
79586;BME280;69054;50.866;4.636;2023-04-22T02:38:37;100381.03;;;3.79;99.00
79586;BME280;69054;50.866;4.636;2023-04-22T02:41:02;100380.72;;;3.82;99.04
79586;BME280;69054;50.866;4.636;2023-04-22T02:43:28;100371.56;;;3.83;99.03
79586;BME280;69054;50.866;4.636;2023-04-22T02:45:54;100376.81;;;3.84;99.00
79586;BME280;69054;50.866;4.636;2023-04-22T02:48:20;100372.28;;;3.85;99.06
79586;BME280;69054;50.866;4.636;2023-04-22T02:50:46;100362.97;;;3.87;98.75
79586;BME280;69054;50.866;4.636;2023-04-22T02:53:11;100363.84;;;3.88;98.85
79586;BME280;69054;50.866;4.636;2023-04-22T02:55:39;100352.69;;;3.91;99.04
79586;BME280;69054;50.866;4.636;2023-04-22T02:58:04;100359.94;;;3.90;99.14
79586;BME280;69054;50.866;4.636;2023-04-22T03:00:29;100354.84;;;3.87;99.06
79586;BME280;69054;50.866;4.636;2023-04-22T03:02:55;100355.88;;;3.86;99.07
79586;BME280;69054;50.866;4.636;2023-04-22T03:05:21;100352.00;;;3.89;99.09
79586;BME280;69054;50.866;4.636;2023-04-22T03:07:46;100351.31;;;3.87;99.01
79586;BME280;69054;50.866;4.636;2023-04-22T03:10:13;100349.28;;;3.89;99.10
79586;BME280;69054;50.866;4.636;2023-04-22T03:12:40;100343.25;;;3.95;99.10
79586;BME280;69054;50.866;4.636;2023-04-22T03:15:06;100328.44;;;4.07;99.26
79586;BME280;69054;50.866;4.636;2023-04-22T03:17:31;100324.19;;;4.13;99.54
79586;BME280;69054;50.866;4.636;2023-04-22T03:19:57;100317.63;;;4.16;99.32
79586;BME280;69054;50.866;4.636;2023-04-22T03:22:22;100319.66;;;4.14;99.24
79586;BME280;69054;50.866;4.636;2023-04-22T03:24:48;100318.78;;;4.13;99.16
79586;BME280;69054;50.866;4.636;2023-04-22T03:27:13;100320.81;;;4.19;99.33
79586;BME280;69054;50.866;4.636;2023-04-22T03:29:39;100315.59;;;4.18;99.21
79586;BME280;69054;50.866;4.636;2023-04-22T03:32:04;100312.38;;;4.14;99.16
79586;BME280;69054;50.866;4.636;2023-04-22T03:34:30;100310.16;;;4.09;98.92
79586;BME280;69054;50.866;4.636;2023-04-22T03:36:55;100303.09;;;4.17;99.24
79586;BME280;69054;50.866;4.636;2023-04-22T03:39:21;100305.47;;;4.20;99.08
79586;BME280;69054;50.866;4.636;2023-04-22T03:41:46;100302.75;;;4.20;99.43
79586;BME280;69054;50.866;4.636;2023-04-22T03:44:11;100301.22;;;4.17;99.00
79586;BME280;69054;50.866;4.636;2023-04-22T03:46:37;100300.38;;;4.17;99.23
79586;BME280;69054;50.866;4.636;2023-04-22T03:49:02;100297.19;;;4.21;99.50
79586;BME280;69054;50.866;4.636;2023-04-22T03:51:27;100296.34;;;4.29;99.27
79586;BME280;69054;50.866;4.636;2023-04-22T03:53:53;100295.34;;;4.30;99.24
79586;BME280;69054;50.866;4.636;2023-04-22T03:56:18;100295.34;;;4.30;99.12
79586;BME280;69054;50.866;4.636;2023-04-22T03:58:44;100290.78;;;4.31;99.23
79586;BME280;69054;50.866;4.636;2023-04-22T04:01:09;100298.22;;;4.37;99.11
79586;BME280;69054;50.866;4.636;2023-04-22T04:03:35;100292.31;;;4.41;99.36
79586;BME280;69054;50.866;4.636;2023-04-22T04:06:01;100294.00;;;4.42;99.23
79586;BME280;69054;50.866;4.636;2023-04-22T04:08:26;100294.84;;;4.35;99.00
79586;BME280;69054;50.866;4.636;2023-04-22T04:10:52;100306.84;;;4.40;99.14
79586;BME280;69054;50.866;4.636;2023-04-22T04:13:17;100313.28;;;4.39;98.99
79586;BME280;69054;50.866;4.636;2023-04-22T04:15:42;100308.53;;;4.33;98.91
79586;BME280;69054;50.866;4.636;2023-04-22T04:18:08;100306.34;;;4.29;98.83
79586;BME280;69054;50.866;4.636;2023-04-22T04:20:34;100300.72;;;4.22;98.94
79586;BME280;69054;50.866;4.636;2023-04-22T04:22:59;100297.53;;;4.18;99.05
79586;BME280;69054;50.866;4.636;2023-04-22T04:25:24;100298.69;;;4.16;98.99
79586;BME280;69054;50.866;4.636;2023-04-22T04:27:50;100295.97;;;4.16;99.04
79586;BME280;69054;50.866;4.636;2023-04-22T04:30:16;100291.56;;;4.15;99.12
79586;BME280;69054;50.866;4.636;2023-04-22T04:32:42;100280.75;;;4.15;98.87
79586;BME280;69054;50.866;4.636;2023-04-22T04:35:10;100282.47;;;4.16;99.08
79586;BME280;69054;50.866;4.636;2023-04-22T04:37:37;100282.63;;;4.14;99.01
79586;BME280;69054;50.866;4.636;2023-04-22T04:40:05;100285.16;;;4.16;99.11
79586;BME280;69054;50.866;4.636;2023-04-22T04:42:32;100294.81;;;4.18;99.14
79586;BME280;69054;50.866;4.636;2023-04-22T04:44:57;100298.38;;;4.27;99.06
79586;BME280;69054;50.866;4.636;2023-04-22T04:47:23;100291.97;;;4.36;99.32
79586;BME280;69054;50.866;4.636;2023-04-22T04:49:49;100284.34;;;4.40;99.13
79586;BME280;69054;50.866;4.636;2023-04-22T04:52:19;100283.84;;;4.44;99.02
79586;BME280;69054;50.866;4.636;2023-04-22T04:54:44;100282.69;;;4.47;98.85
79586;BME280;69054;50.866;4.636;2023-04-22T04:57:09;100274.38;;;4.49;98.73
79586;BME280;69054;50.866;4.636;2023-04-22T04:59:35;100270.69;;;4.50;98.87
79586;BME280;69054;50.866;4.636;2023-04-22T05:02:00;100265.25;;;4.50;98.73
79586;BME280;69054;50.866;4.636;2023-04-22T05:04:26;100264.06;;;4.52;98.97
79586;BME280;69054;50.866;4.636;2023-04-22T05:06:51;100263.06;;;4.53;98.92
79586;BME280;69054;50.866;4.636;2023-04-22T05:09:17;100265.91;;;4.60;98.94
79586;BME280;69054;50.866;4.636;2023-04-22T05:11:43;100264.91;;;4.69;98.89
79586;BME280;69054;50.866;4.636;2023-04-22T05:14:09;100257.31;;;4.73;98.48
79586;BME280;69054;50.866;4.636;2023-04-22T05:16:34;100258.50;;;4.78;98.54
79586;BME280;69054;50.866;4.636;2023-04-22T05:19:00;100264.22;;;4.84;98.47
79586;BME280;69054;50.866;4.636;2023-04-22T05:21:25;100259.31;;;4.87;98.38
79586;BME280;69054;50.866;4.636;2023-04-22T05:23:51;100270.47;;;4.92;98.40
79586;BME280;69054;50.866;4.636;2023-04-22T05:26:16;100269.97;;;4.97;98.34
79586;BME280;69054;50.866;4.636;2023-04-22T05:28:42;100281.81;;;5.04;98.24
79586;BME280;69054;50.866;4.636;2023-04-22T05:31:07;100287.84;;;5.14;98.01
79586;BME280;69054;50.866;4.636;2023-04-22T05:33:32;100280.03;;;5.28;97.38
79586;BME280;69054;50.866;4.636;2023-04-22T05:35:58;100269.19;;;5.36;96.85
79586;BME280;69054;50.866;4.636;2023-04-22T05:38:23;100263.38;;;5.47;96.83
79586;BME280;69054;50.866;4.636;2023-04-22T05:40:49;100268.44;;;5.59;96.31
79586;BME280;69054;50.866;4.636;2023-04-22T05:43:14;100270.56;;;5.72;96.06
79586;BME280;69054;50.866;4.636;2023-04-22T05:45:40;100260.84;;;5.85;95.63
79586;BME280;69054;50.866;4.636;2023-04-22T05:48:05;100270.28;;;5.98;95.28
79586;BME280;69054;50.866;4.636;2023-04-22T05:50:31;100273.63;;;6.08;94.56
79586;BME280;69054;50.866;4.636;2023-04-22T05:52:56;100275.94;;;6.19;94.21
79586;BME280;69054;50.866;4.636;2023-04-22T05:55:22;100279.06;;;6.31;93.31
79586;BME280;69054;50.866;4.636;2023-04-22T05:57:47;100269.13;;;6.47;93.33
79586;BME280;69054;50.866;4.636;2023-04-22T06:00:13;100264.88;;;6.67;93.13
79586;BME280;69054;50.866;4.636;2023-04-22T06:02:38;100254.00;;;6.90;91.88
79586;BME280;69054;50.866;4.636;2023-04-22T06:05:04;100267.31;;;7.15;92.36
79586;BME280;69054;50.866;4.636;2023-04-22T06:07:30;100265.09;;;7.49;92.18
79586;BME280;69054;50.866;4.636;2023-04-22T06:09:55;100269.50;;;7.64;90.61
79586;BME280;69054;50.866;4.636;2023-04-22T06:12:21;100268.06;;;7.54;88.79
79586;BME280;69054;50.866;4.636;2023-04-22T06:14:46;100271.53;;;7.62;89.57
79586;BME280;69054;50.866;4.636;2023-04-22T06:17:12;100271.22;;;7.87;89.01
79586;BME280;69054;50.866;4.636;2023-04-22T06:19:37;100274.25;;;8.14;87.65
79586;BME280;69054;50.866;4.636;2023-04-22T06:22:02;100278.78;;;8.65;89.21
79586;BME280;69054;50.866;4.636;2023-04-22T06:24:28;100283.25;;;9.22;86.07
79586;BME280;69054;50.866;4.636;2023-04-22T06:26:53;100279.00;;;9.48;84.19
79586;BME280;69054;50.866;4.636;2023-04-22T06:29:18;100268.38;;;9.67;84.77
79586;BME280;69054;50.866;4.636;2023-04-22T06:31:44;100263.75;;;9.67;83.72
79586;BME280;69054;50.866;4.636;2023-04-22T06:34:09;100263.53;;;9.62;81.56
79586;BME280;69054;50.866;4.636;2023-04-22T06:36:35;100245.47;;;9.61;82.52
79586;BME280;69054;50.866;4.636;2023-04-22T06:39:02;100243.09;;;9.93;82.41
79586;BME280;69054;50.866;4.636;2023-04-22T06:41:29;100250.41;;;10.34;80.31
79586;BME280;69054;50.866;4.636;2023-04-22T06:43:55;100267.66;;;10.75;81.67
79586;BME280;69054;50.866;4.636;2023-04-22T06:46:20;100268.94;;;10.92;78.91
79586;BME280;69054;50.866;4.636;2023-04-22T06:48:46;100263.44;;;11.26;77.20
79586;BME280;69054;50.866;4.636;2023-04-22T06:51:11;100264.63;;;11.50;74.47
79586;BME280;69054;50.866;4.636;2023-04-22T06:53:37;100266.38;;;11.89;73.86
79586;BME280;69054;50.866;4.636;2023-04-22T06:56:03;100269.03;;;11.58;76.42
79586;BME280;69054;50.866;4.636;2023-04-22T06:58:28;100265.53;;;11.17;73.55
79586;BME280;69054;50.866;4.636;2023-04-22T07:00:53;100263.00;;;11.15;76.00
79586;BME280;69054;50.866;4.636;2023-04-22T07:03:19;100271.44;;;11.21;78.25
79586;BME280;69054;50.866;4.636;2023-04-22T07:05:44;100266.16;;;11.12;76.18
79586;BME280;69054;50.866;4.636;2023-04-22T07:08:10;100267.69;;;10.95;76.66
79586;BME280;69054;50.866;4.636;2023-04-22T07:10:37;100267.44;;;10.76;76.80
79586;BME280;69054;50.866;4.636;2023-04-22T07:13:02;100257.34;;;10.43;77.27
79586;BME280;69054;50.866;4.636;2023-04-22T07:15:27;100254.81;;;10.42;78.18
79586;BME280;69054;50.866;4.636;2023-04-22T07:17:53;100241.56;;;10.45;78.14
79586;BME280;69054;50.866;4.636;2023-04-22T07:20:18;100236.56;;;10.69;76.66
79586;BME280;69054;50.866;4.636;2023-04-22T07:22:44;100229.38;;;11.08;74.48
79586;BME280;69054;50.866;4.636;2023-04-22T07:25:09;100228.91;;;11.97;73.12
79586;BME280;69054;50.866;4.636;2023-04-22T07:27:35;100239.41;;;12.70;69.46
79586;BME280;69054;50.866;4.636;2023-04-22T07:30:01;100232.03;;;13.14;67.68
79586;BME280;69054;50.866;4.636;2023-04-22T07:32:26;100235.91;;;12.56;67.10
79586;BME280;69054;50.866;4.636;2023-04-22T07:34:52;100213.59;;;12.21;69.66
79586;BME280;69054;50.866;4.636;2023-04-22T07:37:17;100206.00;;;11.78;70.96
79586;BME280;69054;50.866;4.636;2023-04-22T07:39:42;100189.19;;;11.74;72.26
79586;BME280;69054;50.866;4.636;2023-04-22T07:42:08;100185.84;;;11.72;72.27
79586;BME280;69054;50.866;4.636;2023-04-22T07:44:33;100175.81;;;11.52;71.44
79586;BME280;69054;50.866;4.636;2023-04-22T07:46:59;100177.22;;;11.68;71.69
79586;BME280;69054;50.866;4.636;2023-04-22T07:49:24;100180.38;;;11.65;71.36
79586;BME280;69054;50.866;4.636;2023-04-22T07:51:50;100183.59;;;11.56;71.05
79586;BME280;69054;50.866;4.636;2023-04-22T07:54:16;100190.88;;;11.75;71.12
79586;BME280;69054;50.866;4.636;2023-04-22T07:56:43;100201.31;;;11.98;70.50
79586;BME280;69054;50.866;4.636;2023-04-22T07:59:08;100198.06;;;12.08;70.42
79586;BME280;69054;50.866;4.636;2023-04-22T08:01:34;100197.13;;;12.28;69.77
79586;BME280;69054;50.866;4.636;2023-04-22T08:03:59;100194.13;;;12.61;69.21
79586;BME280;69054;50.866;4.636;2023-04-22T08:06:25;100197.84;;;12.73;67.48
79586;BME280;69054;50.866;4.636;2023-04-22T08:08:52;100214.13;;;13.12;66.30
79586;BME280;69054;50.866;4.636;2023-04-22T08:11:17;100219.91;;;13.47;66.62
79586;BME280;69054;50.866;4.636;2023-04-22T08:13:43;100212.47;;;14.15;63.64
79586;BME280;69054;50.866;4.636;2023-04-22T08:16:10;100222.69;;;15.52;57.66
79586;BME280;69054;50.866;4.636;2023-04-22T08:18:35;100242.13;;;16.72;54.75
79586;BME280;69054;50.866;4.636;2023-04-22T08:21:01;100248.50;;;17.24;53.16
79586;BME280;69054;50.866;4.636;2023-04-22T08:23:26;100250.59;;;17.95;50.27
79586;BME280;69054;50.866;4.636;2023-04-22T08:25:52;100258.25;;;18.37;49.52
79586;BME280;69054;50.866;4.636;2023-04-22T08:28:17;100265.22;;;17.73;50.54
79586;BME280;69054;50.866;4.636;2023-04-22T08:30:42;100256.03;;;17.11;52.56
79586;BME280;69054;50.866;4.636;2023-04-22T08:33:08;100239.06;;;17.02;52.72
79586;BME280;69054;50.866;4.636;2023-04-22T08:35:34;100255.19;;;17.28;52.51
79586;BME280;69054;50.866;4.636;2023-04-22T08:38:00;100256.88;;;17.12;52.89
79586;BME280;69054;50.866;4.636;2023-04-22T08:40:26;100252.88;;;16.11;56.40
79586;BME280;69054;50.866;4.636;2023-04-22T08:42:52;100242.13;;;16.72;55.56
79586;BME280;69054;50.866;4.636;2023-04-22T08:45:19;100229.78;;;16.92;54.97
79586;BME280;69054;50.866;4.636;2023-04-22T08:47:46;100217.22;;;16.67;55.45
79586;BME280;69054;50.866;4.636;2023-04-22T08:50:12;100220.91;;;15.98;57.82
79586;BME280;69054;50.866;4.636;2023-04-22T08:52:38;100212.22;;;15.77;58.03
79586;BME280;69054;50.866;4.636;2023-04-22T08:55:04;100225.34;;;15.99;57.49
79586;BME280;69054;50.866;4.636;2023-04-22T08:57:30;100226.69;;;16.42;56.17
79586;BME280;69054;50.866;4.636;2023-04-22T08:59:56;100222.63;;;16.79;55.18
79586;BME280;69054;50.866;4.636;2023-04-22T09:02:23;100214.28;;;16.57;55.33
79586;BME280;69054;50.866;4.636;2023-04-22T09:04:51;100210.84;;;16.49;56.59
79586;BME280;69054;50.866;4.636;2023-04-22T09:07:23;100220.75;;;16.05;58.31
79586;BME280;69054;50.866;4.636;2023-04-22T09:09:49;100207.22;;;16.03;57.20
79586;BME280;69054;50.866;4.636;2023-04-22T09:12:15;100193.84;;;15.95;57.61
79586;BME280;69054;50.866;4.636;2023-04-22T09:14:43;100192.28;;;16.28;57.38
79586;BME280;69054;50.866;4.636;2023-04-22T09:17:09;100187.38;;;16.64;57.15
79586;BME280;69054;50.866;4.636;2023-04-22T09:19:34;100187.03;;;17.33;54.64
79586;BME280;69054;50.866;4.636;2023-04-22T09:22:00;100196.00;;;17.63;54.22
79586;BME280;69054;50.866;4.636;2023-04-22T09:24:26;100206.22;;;18.06;52.69
79586;BME280;69054;50.866;4.636;2023-04-22T09:26:54;100203.28;;;17.30;54.37
79586;BME280;69054;50.866;4.636;2023-04-22T09:29:20;100208.66;;;16.52;57.96
79586;BME280;69054;50.866;4.636;2023-04-22T09:31:49;100202.31;;;16.05;59.31
79586;BME280;69054;50.866;4.636;2023-04-22T09:34:14;100193.59;;;15.44;61.15
79586;BME280;69054;50.866;4.636;2023-04-22T09:36:42;100186.72;;;15.06;63.51
79586;BME280;69054;50.866;4.636;2023-04-22T09:39:08;100188.25;;;14.66;65.32
79586;BME280;69054;50.866;4.636;2023-04-22T09:41:35;100188.66;;;14.40;68.90
79586;BME280;69054;50.866;4.636;2023-04-22T09:44:02;100206.03;;;13.91;73.67
79586;BME280;69054;50.866;4.636;2023-04-22T09:46:29;100232.63;;;13.42;76.61
79586;BME280;69054;50.866;4.636;2023-04-22T09:48:56;100219.50;;;13.00;78.04
79586;BME280;69054;50.866;4.636;2023-04-22T09:51:23;100218.78;;;12.86;78.96
79586;BME280;69054;50.866;4.636;2023-04-22T09:54:08;100210.91;;;12.96;80.81
79586;BME280;69054;50.866;4.636;2023-04-22T09:56:42;100210.69;;;13.17;81.07
79586;BME280;69054;50.866;4.636;2023-04-22T09:59:08;100222.06;;;13.20;81.24
79586;BME280;69054;50.866;4.636;2023-04-22T10:01:37;100228.81;;;12.99;81.63
79586;BME280;69054;50.866;4.636;2023-04-22T10:04:06;100227.13;;;12.73;83.12
79586;BME280;69054;50.866;4.636;2023-04-22T10:06:32;100229.13;;;12.66;83.27
79586;BME280;69054;50.866;4.636;2023-04-22T10:08:58;100223.31;;;12.49;83.73
79586;BME280;69054;50.866;4.636;2023-04-22T10:11:24;100228.06;;;12.35;84.21
79586;BME280;69054;50.866;4.636;2023-04-22T10:13:49;100226.47;;;12.20;86.07
79586;BME280;69054;50.866;4.636;2023-04-22T10:16:18;100223.53;;;12.15;86.44
79586;BME280;69054;50.866;4.636;2023-04-22T10:18:44;100222.50;;;12.10;87.84
79586;BME280;69054;50.866;4.636;2023-04-22T10:21:10;100211.78;;;12.08;87.48
79586;BME280;69054;50.866;4.636;2023-04-22T10:23:36;100209.84;;;12.15;87.76
79586;BME280;69054;50.866;4.636;2023-04-22T10:26:04;100224.78;;;12.19;87.83
79586;BME280;69054;50.866;4.636;2023-04-22T10:28:29;100219.47;;;12.24;87.92
79586;BME280;69054;50.866;4.636;2023-04-22T10:30:55;100218.41;;;12.25;87.20
79586;BME280;69054;50.866;4.636;2023-04-22T10:41:28;100217.06;;;12.41;87.04
79586;BME280;69054;50.866;4.636;2023-04-22T10:43:59;100205.44;;;12.46;85.20
79586;BME280;69054;50.866;4.636;2023-04-22T10:48:57;100220.78;;;12.47;85.77
79586;BME280;69054;50.866;4.636;2023-04-22T10:51:43;100211.97;;;12.45;85.26
79586;BME280;69054;50.866;4.636;2023-04-22T10:57:12;100215.09;;;12.49;86.90
79586;BME280;69054;50.866;4.636;2023-04-22T10:59:48;100219.47;;;12.56;85.90
79586;BME280;69054;50.866;4.636;2023-04-22T11:02:15;100215.44;;;12.59;85.93
79586;BME280;69054;50.866;4.636;2023-04-22T11:04:41;100218.41;;;12.57;87.24
79586;BME280;69054;50.866;4.636;2023-04-22T11:09:49;100223.59;;;12.40;86.41
79586;BME280;69054;50.866;4.636;2023-04-22T11:15:00;100224.19;;;12.17;87.03
79586;BME280;69054;50.866;4.636;2023-04-22T11:17:26;100217.19;;;12.21;87.73
79586;BME280;69054;50.866;4.636;2023-04-22T11:19:51;100219.44;;;12.31;88.01
79586;BME280;69054;50.866;4.636;2023-04-22T11:22:22;100216.41;;;12.46;86.73
79586;BME280;69054;50.866;4.636;2023-04-22T11:24:58;100220.69;;;12.60;87.69
79586;BME280;69054;50.866;4.636;2023-04-22T11:27:25;100227.81;;;12.68;85.81
79586;BME280;69054;50.866;4.636;2023-04-22T11:32:37;100227.47;;;12.83;86.64
79586;BME280;69054;50.866;4.636;2023-04-22T11:35:04;100231.91;;;12.84;86.76
79586;BME280;69054;50.866;4.636;2023-04-22T11:37:41;100236.53;;;12.84;87.31
79586;BME280;69054;50.866;4.636;2023-04-22T11:40:08;100231.41;;;12.69;86.69
79586;BME280;69054;50.866;4.636;2023-04-22T11:42:35;100232.63;;;12.48;87.24
79586;BME280;69054;50.866;4.636;2023-04-22T11:45:02;100236.25;;;12.41;87.78
79586;BME280;69054;50.866;4.636;2023-04-22T11:47:31;100240.25;;;12.39;88.44
79586;BME280;69054;50.866;4.636;2023-04-22T11:49:58;100235.59;;;12.39;89.00
79586;BME280;69054;50.866;4.636;2023-04-22T11:52:24;100232.41;;;12.42;89.13
79586;BME280;69054;50.866;4.636;2023-04-22T11:54:50;100232.16;;;12.51;88.40
79586;BME280;69054;50.866;4.636;2023-04-22T11:57:16;100235.56;;;12.46;88.43
79586;BME280;69054;50.866;4.636;2023-04-22T11:59:42;100230.75;;;12.41;88.24
79586;BME280;69054;50.866;4.636;2023-04-22T12:02:09;100230.34;;;12.38;87.32
79586;BME280;69054;50.866;4.636;2023-04-22T12:04:42;100243.25;;;12.31;87.55
79586;BME280;69054;50.866;4.636;2023-04-22T12:07:07;100239.09;;;12.21;87.90
79586;BME280;69054;50.866;4.636;2023-04-22T12:09:33;100242.47;;;12.17;88.48
79586;BME280;69054;50.866;4.636;2023-04-22T12:11:58;100239.59;;;12.05;89.34
79586;BME280;69054;50.866;4.636;2023-04-22T12:14:35;100235.81;;;12.06;88.64
79586;BME280;69054;50.866;4.636;2023-04-22T12:17:05;100246.31;;;12.09;88.50
79586;BME280;69054;50.866;4.636;2023-04-22T12:19:32;100246.09;;;12.11;89.05
79586;BME280;69054;50.866;4.636;2023-04-22T12:21:58;100238.72;;;12.11;88.96
79586;BME280;69054;50.866;4.636;2023-04-22T12:24:27;100247.38;;;12.08;90.06
79586;BME280;69054;50.866;4.636;2023-04-22T12:26:53;100243.78;;;12.14;90.92
79586;BME280;69054;50.866;4.636;2023-04-22T12:29:31;100243.47;;;12.29;90.40
79586;BME280;69054;50.866;4.636;2023-04-22T12:31:58;100248.41;;;12.46;89.31
79586;BME280;69054;50.866;4.636;2023-04-22T12:34:23;100244.34;;;12.55;90.04
79586;BME280;69054;50.866;4.636;2023-04-22T12:36:49;100246.63;;;12.58;89.83
79586;BME280;69054;50.866;4.636;2023-04-22T12:39:14;100245.81;;;12.57;88.97
79586;BME280;69054;50.866;4.636;2023-04-22T12:41:40;100238.31;;;12.46;90.58
79586;BME280;69054;50.866;4.636;2023-04-22T12:44:06;100244.69;;;12.40;90.97
79586;BME280;69054;50.866;4.636;2023-04-22T12:46:33;100254.69;;;12.53;91.02
79586;BME280;69054;50.866;4.636;2023-04-22T12:49:00;100248.72;;;12.63;91.54
79586;BME280;69054;50.866;4.636;2023-04-22T12:51:25;100247.19;;;12.73;90.69
79586;BME280;69054;50.866;4.636;2023-04-22T12:53:51;100249.63;;;12.82;89.90
79586;BME280;69054;50.866;4.636;2023-04-22T12:56:17;100234.34;;;12.92;88.98
79586;BME280;69054;50.866;4.636;2023-04-22T12:58:42;100247.03;;;13.12;89.10
79586;BME280;69054;50.866;4.636;2023-04-22T13:01:07;100245.91;;;13.20;88.54
79586;BME280;69054;50.866;4.636;2023-04-22T13:03:33;100243.63;;;13.17;87.94
79586;BME280;69054;50.866;4.636;2023-04-22T13:05:58;100242.16;;;13.14;88.51
79586;BME280;69054;50.866;4.636;2023-04-22T13:08:24;100257.44;;;13.03;89.62
79586;BME280;69054;50.866;4.636;2023-04-22T13:10:49;100244.50;;;12.92;88.11